Hattiesburg Bobby L Chain Municipal Airport
KHBG : now visible

Airfield :











YOU CAN JOIN US ON...

 
LOGIN :

Register | Disclaimer

   EN    FR    IT 

 









Legend :    VFR   Marginal VFR   IFR   Intensive IFR   Very Intensive IFR
Visi :
Ceiling :
>= 8 km
>= 3000ft
5 to 8 km
1000 to 3000 ft
1500m to 5 km
500 to 1000 ft
800 to 1500m
200 to 500 ft
< 800m
< 200 ft
Symbols :   Thunderstorms  Fog  Heavy snow  Heavy precipitations  Wind > 20 kt






- Airport Elevation : 151 ft


KHBG - Hattiesburg Bobby L Chain Municipal

CURRENT METAR :
  • 280153Z AUTO 13004KT 10SM OVC004 24/23 A2998 RMK AO2 SLP150 T02390233

EXPIRED METARs :
  • 280133Z AUTO 11004KT 10SM BKN004 BKN008 OVC014 24/23 A2998 RMK AO2 T02390233 TSNO
  • 280115Z AUTO 11006KT 10SM FEW005 OVC012 24/23 A2998 RMK AO2 T02390233
  • 280053Z AUTO 11005KT 10SM OVC014 24/23 A2998 RMK AO2 RAE14 SLP150 P0001 T02440233
  • 280023Z AUTO 11005KT 10SM FEW005 OVC012 24/23 A2998 RMK AO2 RAE14 P0001 T02440233
  • 280004Z AUTO 10007KT 6SM VCTS -RA BR SCT005 BKN011 OVC016 24/23 A2998 RMK AO2 LTG DSNT NE P0001 T02440233
  • 272358Z AUTO 10006KT 3SM -RA BR BKN007 BKN011 OVC018 24/23 A2997 RMK AO2 LTG DSNT NE P0000 T02440228
  • 272347Z AUTO 10004KT 1 1/4SM +RA BR BKN009 BKN015 OVC024 24/23 A2997 RMK AO2 RAE2254B17 P0022

TAF KHBG
Valid from the 28 at 02:00 until the 29 at 00:00 UTC


280144Z 2802/2824 11004KT P6SM BKN004 OVC008
FM280500 12002KT 2SM BR VCSH SCT009 BKN010
FM281200 12005KT 1 1/2SM -SHRA BR OVC003
FM282200 11017G26KT 1 1/2SM -RA BR OVC015
KZHU FIR / North America



MET'MAP, your aeronautical weather chart ! - Copyright ORBIFLY December 2007 - Disclaimer

ORBIFLY MET'MAP TEAM :

Programming & Development : Alexandra Zaïnal
Concept & original design : Baudouin d'Aumeries
Assistance for programming : Marc-Olivier Méhu
Technical & hardware support : Manuel Goepfert

Contact : metmap@orbifly.com




SOURCES & CREDITS :

   NOAA       Earth
Advisory